createdAt,value
2022-08-27T00:01:47.391Z,16.49
2022-08-27T00:04:15.165Z,16.57
2022-08-27T00:06:42.947Z,16.66
2022-08-27T00:09:14.075Z,16.69
2022-08-27T00:11:41.882Z,15.95
2022-08-27T00:14:09.919Z,16.20
2022-08-27T00:16:37.767Z,16.60
2022-08-27T00:19:06.935Z,16.39
2022-08-27T00:21:34.635Z,16.58
2022-08-27T00:24:03.063Z,16.76
2022-08-27T00:26:30.855Z,16.30
2022-08-27T00:28:58.641Z,16.71
2022-08-27T00:31:27.538Z,16.80
2022-08-27T00:33:55.668Z,16.79
2022-08-27T00:36:25.204Z,16.34
2022-08-27T00:38:54.104Z,16.73
2022-08-27T00:41:22.910Z,16.56
2022-08-27T00:43:53.704Z,16.75
2022-08-27T00:46:27.400Z,16.70
2022-08-27T00:48:59.225Z,16.27
2022-08-27T00:51:29.444Z,16.72
2022-08-27T00:53:59.716Z,16.68
2022-08-27T00:56:32.739Z,16.68
2022-08-27T00:59:03.352Z,16.20
2022-08-27T01:01:35.974Z,16.16
2022-08-27T01:04:06.433Z,16.43
2022-08-27T01:06:38.552Z,16.44
2022-08-27T01:09:17.890Z,16.39
2022-08-27T01:11:48.386Z,16.47
2022-08-27T01:14:17.319Z,15.78
2022-08-27T01:16:50.614Z,15.47
2022-08-27T01:19:27.813Z,16.40
2022-08-27T01:22:04.107Z,16.41
2022-08-27T01:24:37.589Z,15.79
2022-08-27T01:27:13.494Z,15.72
2022-08-27T01:29:43.409Z,15.95
2022-08-27T01:32:14.580Z,16.53
2022-08-27T01:34:43.056Z,16.53
2022-08-27T01:37:12.377Z,16.19
2022-08-27T01:39:43.007Z,15.63
2022-08-27T01:42:17.786Z,16.65
2022-08-27T01:44:49.891Z,16.48
2022-08-27T01:47:19.063Z,16.62
2022-08-27T01:49:47.592Z,16.63
2022-08-27T01:52:17.926Z,16.66
2022-08-27T01:54:47.883Z,16.27
2022-08-27T01:57:15.967Z,15.94
2022-08-27T01:59:43.758Z,16.28
2022-08-27T02:02:15.743Z,16.66
2022-08-27T02:04:43.962Z,15.95
2022-08-27T02:07:12.630Z,16.26
2022-08-27T02:09:40.481Z,16.67
2022-08-27T02:12:10.005Z,16.39
2022-08-27T02:14:37.704Z,16.45
2022-08-27T02:17:05.683Z,15.85
2022-08-27T02:19:33.435Z,16.04
2022-08-27T02:22:01.150Z,16.59
2022-08-27T02:24:29.245Z,16.58
2022-08-27T02:26:57.671Z,16.27
2022-08-27T02:29:27.036Z,16.46
2022-08-27T02:31:54.924Z,16.16
2022-08-27T02:34:23.320Z,15.88
2022-08-27T02:36:51.041Z,16.12
2022-08-27T02:39:18.922Z,16.44
2022-08-27T02:41:46.662Z,16.39
2022-08-27T02:44:14.392Z,16.48
2022-08-27T02:46:43.610Z,15.42
2022-08-27T02:49:11.438Z,16.40
2022-08-27T02:51:39.358Z,16.43
2022-08-27T02:54:09.626Z,16.22
2022-08-27T02:56:37.652Z,16.36
2022-08-27T02:59:05.489Z,16.56
2022-08-27T03:01:33.773Z,16.03
2022-08-27T03:04:02.882Z,16.16
2022-08-27T03:06:31.751Z,15.70
2022-08-27T03:08:59.513Z,15.39
2022-08-27T03:11:27.519Z,15.75
2022-08-27T03:13:55.168Z,16.49
2022-08-27T03:16:22.947Z,16.35
2022-08-27T03:18:49.792Z,15.99
2022-08-27T03:21:21.370Z,16.43
2022-08-27T03:23:49.641Z,16.28
2022-08-27T03:26:17.824Z,16.26
2022-08-27T03:28:46.663Z,16.47
2022-08-27T03:31:20.622Z,16.03
2022-08-27T03:33:48.408Z,16.39
2022-08-27T03:36:16.241Z,15.99
2022-08-27T03:38:45.434Z,16.09
2022-08-27T03:41:13.762Z,16.54
2022-08-27T03:43:41.718Z,15.63
2022-08-27T03:46:09.854Z,16.54
2022-08-27T03:48:37.739Z,16.26
2022-08-27T03:51:07.950Z,16.49
2022-08-27T03:53:36.972Z,16.17
2022-08-27T03:56:07.323Z,16.01
2022-08-27T03:58:35.680Z,16.29
2022-08-27T04:01:04.979Z,16.42
2022-08-27T04:03:33.501Z,16.44
2022-08-27T04:06:01.278Z,16.27
2022-08-27T04:08:29.054Z,15.51
2022-08-27T04:10:57.187Z,16.25
2022-08-27T04:13:26.826Z,15.99
2022-08-27T04:15:55.490Z,16.40
2022-08-27T04:18:23.884Z,16.23
2022-08-27T04:20:53.498Z,15.86
2022-08-27T04:23:21.520Z,16.33
2022-08-27T04:25:49.230Z,16.30
2022-08-27T04:28:17.603Z,16.48
2022-08-27T04:30:48.274Z,16.39
2022-08-27T04:33:16.092Z,16.31
2022-08-27T04:35:44.063Z,16.46
2022-08-27T04:38:11.999Z,16.47
2022-08-27T04:40:57.465Z,16.10
2022-08-27T04:43:25.162Z,16.49
2022-08-27T04:45:54.166Z,16.54
2022-08-27T04:48:21.997Z,16.49
2022-08-27T04:50:49.853Z,16.46
2022-08-27T04:53:18.413Z,16.29
2022-08-27T04:55:49.170Z,15.76
2022-08-27T04:58:17.625Z,16.51
2022-08-27T05:00:48.392Z,16.29
2022-08-27T05:03:19.390Z,16.41
2022-08-27T05:05:47.670Z,16.07
2022-08-27T05:08:15.347Z,16.14
2022-08-27T05:10:44.011Z,16.51
2022-08-27T05:13:12.078Z,16.43
2022-08-27T05:15:41.007Z,16.43
2022-08-27T05:18:09.970Z,16.25
2022-08-27T05:20:45.687Z,16.46
2022-08-27T05:23:13.563Z,16.40
2022-08-27T05:25:43.472Z,16.56
2022-08-27T05:28:11.761Z,16.51
2022-08-27T05:30:42.248Z,16.45
2022-08-27T05:33:10.625Z,16.43
2022-08-27T05:35:43.237Z,16.25
2022-08-27T05:38:11.703Z,16.05
2022-08-27T05:40:40.519Z,16.39
2022-08-27T05:43:08.700Z,16.39
2022-08-27T05:45:42.596Z,16.32
2022-08-27T05:48:12.058Z,16.42
2022-08-27T05:50:40.083Z,15.83
2022-08-27T05:53:09.272Z,16.33
2022-08-27T05:55:39.107Z,16.42
2022-08-27T05:58:07.392Z,16.32
2022-08-27T06:00:54.761Z,16.31
2022-08-27T06:03:22.483Z,16.55
2022-08-27T06:05:50.126Z,16.01
2022-08-27T06:08:19.384Z,15.85
2022-08-27T06:10:47.174Z,15.95
2022-08-27T06:13:15.293Z,16.12
2022-08-27T06:15:43.098Z,16.42
2022-08-27T06:18:13.502Z,16.41
2022-08-27T06:20:41.229Z,16.48
2022-08-27T06:23:11.134Z,16.10
2022-08-27T06:25:42.963Z,16.75
2022-08-27T06:28:11.182Z,16.73
2022-08-27T06:30:39.011Z,16.38
2022-08-27T06:33:06.681Z,16.35
2022-08-27T06:35:35.379Z,16.81
2022-08-27T06:38:03.148Z,16.88
2022-08-27T06:40:30.960Z,16.41
2022-08-27T06:43:00.276Z,16.73
2022-08-27T06:45:28.054Z,16.94
2022-08-27T06:47:55.887Z,16.38
2022-08-27T06:50:27.231Z,17.04
2022-08-27T06:52:55.203Z,16.96
2022-08-27T06:55:22.903Z,17.05
2022-08-27T06:57:50.565Z,17.14
2022-08-27T07:00:19.683Z,16.47
2022-08-27T07:02:47.442Z,16.99
2022-08-27T07:05:15.173Z,16.67
2022-08-27T07:07:46.685Z,17.09
2022-08-27T07:10:16.483Z,16.98
2022-08-27T07:12:44.186Z,16.31
2022-08-27T07:15:12.590Z,16.85
2022-08-27T07:17:44.704Z,17.12
2022-08-27T07:20:12.820Z,17.19
2022-08-27T07:22:41.556Z,17.21
2022-08-27T07:25:12.489Z,17.28
2022-08-27T07:27:40.516Z,17.40
2022-08-27T07:30:12.164Z,17.39
2022-08-27T07:32:40.088Z,17.41
2022-08-27T07:35:09.791Z,17.44
2022-08-27T07:37:37.513Z,17.30
2022-08-27T07:40:06.809Z,17.23
2022-08-27T07:42:51.931Z,17.55
2022-08-27T07:45:19.617Z,17.41
2022-08-27T07:47:47.633Z,17.61
2022-08-27T07:50:17.482Z,17.61
2022-08-27T07:52:45.199Z,17.46
2022-08-27T07:55:13.977Z,17.55
2022-08-27T07:57:42.007Z,17.56
2022-08-27T08:00:11.792Z,17.54
2022-08-27T08:02:44.759Z,17.24
2022-08-27T08:05:14.098Z,17.74
2022-08-27T08:07:43.933Z,17.61
2022-08-27T08:10:12.781Z,17.59
2022-08-27T08:12:41.488Z,17.87
2022-08-27T08:15:11.590Z,17.87
2022-08-27T08:17:40.021Z,17.95
2022-08-27T08:20:23.775Z,17.93
2022-08-27T08:22:59.122Z,17.44
2022-08-27T08:25:27.102Z,17.51
2022-08-27T08:27:55.370Z,17.84
2022-08-27T08:30:23.975Z,17.84
2022-08-27T08:32:51.806Z,17.55
2022-08-27T08:35:19.651Z,18.05
2022-08-27T08:37:47.819Z,18.15
2022-08-27T08:40:29.710Z,18.24
2022-08-27T08:42:58.111Z,18.21
2022-08-27T08:45:28.894Z,18.32
2022-08-27T08:48:04.979Z,18.31
2022-08-27T08:50:39.134Z,18.27
2022-08-27T08:53:12.819Z,18.38
2022-08-27T08:55:47.320Z,18.27
2022-08-27T08:58:22.276Z,18.48
2022-08-27T09:00:55.665Z,18.17
2022-08-27T09:03:24.479Z,18.17
2022-08-27T09:06:02.319Z,18.69
2022-08-27T09:08:40.475Z,18.19
2022-08-27T09:11:20.197Z,17.84
2022-08-27T09:13:50.526Z,18.30
2022-08-27T09:16:18.827Z,17.65
2022-08-27T09:18:51.213Z,18.21
2022-08-27T09:21:32.146Z,18.27
2022-08-27T09:24:07.641Z,18.35
2022-08-27T09:26:40.018Z,17.90
2022-08-27T09:29:20.774Z,18.57
2022-08-27T09:31:58.245Z,18.37
2022-08-27T09:34:27.904Z,18.48
2022-08-27T09:37:01.540Z,18.38
2022-08-27T09:39:33.749Z,18.30
2022-08-27T09:42:04.524Z,18.13
2022-08-27T09:44:33.590Z,18.26
2022-08-27T09:47:03.987Z,17.84
2022-08-27T09:49:34.616Z,18.03
2022-08-27T09:52:03.106Z,18.16
2022-08-27T09:54:39.291Z,18.37
2022-08-27T09:57:10.120Z,18.03
2022-08-27T09:59:41.416Z,18.49
2022-08-27T10:02:16.378Z,18.58
2022-08-27T10:04:50.400Z,18.81
2022-08-27T10:07:27.018Z,18.93
2022-08-27T10:09:59.874Z,19.00
2022-08-27T10:12:36.734Z,19.02
2022-08-27T10:15:07.067Z,18.87
2022-08-27T10:17:46.193Z,18.77
2022-08-27T10:20:20.363Z,18.98
2022-08-27T10:23:06.305Z,18.86
2022-08-27T10:25:41.587Z,19.00
2022-08-27T10:28:24.622Z,18.82
2022-08-27T10:31:08.241Z,18.64
2022-08-27T10:33:43.637Z,18.89
2022-08-27T10:36:27.008Z,18.40
2022-08-27T10:39:02.088Z,18.57
2022-08-27T10:41:34.797Z,18.53
2022-08-27T10:44:25.097Z,18.32
2022-08-27T10:47:06.373Z,18.82
2022-08-27T10:49:44.577Z,18.97
2022-08-27T10:52:21.206Z,18.69
2022-08-27T10:54:54.363Z,18.99
2022-08-27T10:57:53.883Z,19.08
2022-08-27T11:00:24.113Z,19.53
2022-08-27T11:02:55.646Z,19.63
2022-08-27T11:05:31.466Z,19.76
2022-08-27T11:08:07.580Z,19.85
2022-08-27T11:10:39.259Z,19.95
2022-08-27T11:13:13.995Z,19.81
2022-08-27T11:15:47.029Z,19.33
2022-08-27T11:18:21.668Z,19.62
2022-08-27T11:20:55.274Z,19.65
2022-08-27T11:23:26.111Z,20.11
2022-08-27T11:25:58.351Z,20.42
2022-08-27T11:28:37.517Z,20.09
2022-08-27T11:31:14.348Z,20.12
2022-08-27T11:33:48.066Z,20.39
2022-08-27T11:36:54.117Z,20.54
2022-08-27T11:39:38.534Z,20.60
2022-08-27T11:42:11.296Z,20.79
2022-08-27T11:44:43.796Z,20.88
2022-08-27T11:47:20.139Z,20.80
2022-08-27T11:49:51.211Z,20.70
2022-08-27T11:52:27.090Z,20.52
2022-08-27T11:55:10.706Z,20.55
2022-08-27T11:57:40.140Z,20.63
2022-08-27T12:00:20.908Z,20.62
2022-08-27T12:02:59.810Z,20.61
2022-08-27T12:05:36.466Z,20.86
2022-08-27T12:08:16.153Z,20.80
2022-08-27T12:11:09.931Z,21.12
2022-08-27T12:13:44.507Z,20.83
2022-08-27T12:16:23.472Z,20.63
2022-08-27T12:19:02.974Z,20.62
2022-08-27T12:21:43.522Z,19.80
2022-08-27T12:24:34.262Z,20.40
2022-08-27T12:27:24.264Z,20.51
2022-08-27T12:29:56.409Z,20.62
2022-08-27T12:32:28.772Z,20.28
2022-08-27T12:35:06.521Z,19.90
2022-08-27T12:37:38.651Z,20.56
2022-08-27T12:40:14.548Z,20.05
2022-08-27T12:42:42.390Z,20.43
2022-08-27T12:45:19.153Z,20.45
2022-08-27T12:47:50.550Z,20.33
2022-08-27T12:50:26.255Z,20.28
2022-08-27T12:53:08.673Z,20.42
2022-08-27T12:55:47.190Z,20.48
2022-08-27T12:58:24.653Z,20.42
2022-08-27T13:01:22.027Z,20.61
2022-08-27T13:03:52.966Z,20.81
2022-08-27T13:06:24.171Z,20.88
2022-08-27T13:08:54.925Z,20.88
2022-08-27T13:11:25.367Z,20.35
2022-08-27T13:14:04.534Z,20.47
2022-08-27T13:16:36.030Z,20.17
2022-08-27T13:19:08.219Z,20.37
2022-08-27T13:21:36.079Z,20.56
2022-08-27T13:24:06.857Z,20.51
2022-08-27T13:26:38.586Z,20.52
2022-08-27T13:29:08.669Z,20.55
2022-08-27T13:31:38.982Z,20.69
2022-08-27T13:34:08.031Z,20.69
2022-08-27T13:36:50.507Z,20.09
2022-08-27T13:39:18.590Z,20.47
2022-08-27T13:41:48.861Z,20.59
2022-08-27T13:44:21.875Z,21.00
2022-08-27T13:46:54.508Z,20.37
2022-08-27T13:49:25.257Z,20.56
2022-08-27T13:52:01.967Z,20.87
2022-08-27T13:54:30.344Z,20.78
2022-08-27T13:57:08.017Z,20.82
2022-08-27T13:59:41.970Z,21.10
2022-08-27T14:02:22.192Z,21.13
2022-08-27T14:04:52.545Z,21.04
2022-08-27T14:07:36.731Z,21.20
2022-08-27T14:10:07.461Z,21.22
2022-08-27T14:12:38.116Z,21.12
2022-08-27T14:15:21.319Z,20.99
2022-08-27T14:17:50.989Z,20.64
2022-08-27T14:20:20.657Z,20.61
2022-08-27T14:22:48.776Z,20.96
2022-08-27T14:25:17.589Z,20.88
2022-08-27T14:27:53.977Z,20.81
2022-08-27T14:30:29.996Z,20.76
2022-08-27T14:33:00.300Z,20.74
2022-08-27T14:35:28.562Z,20.32
2022-08-27T14:37:56.554Z,20.72
2022-08-27T14:40:24.429Z,20.28
2022-08-27T14:42:52.829Z,20.12
2022-08-27T14:45:20.802Z,20.86
2022-08-27T14:47:48.694Z,20.80
2022-08-27T14:50:17.834Z,20.88
2022-08-27T14:52:45.533Z,20.84
2022-08-27T14:55:14.373Z,20.35
2022-08-27T14:57:42.136Z,20.47
2022-08-27T15:00:11.359Z,20.95
2022-08-27T15:02:42.263Z,21.14
2022-08-27T15:05:10.121Z,21.25
2022-08-27T15:07:42.228Z,21.28
2022-08-27T15:10:15.581Z,21.09
2022-08-27T15:12:43.807Z,21.20
2022-08-27T15:15:11.971Z,20.95
2022-08-27T15:17:40.163Z,21.23
2022-08-27T15:20:18.850Z,21.28
2022-08-27T15:22:51.869Z,21.31
2022-08-27T15:25:21.497Z,21.06
2022-08-27T15:27:49.843Z,20.95
2022-08-27T15:30:18.972Z,21.06
2022-08-27T15:32:49.209Z,20.41
2022-08-27T15:35:19.836Z,20.89
2022-08-27T15:37:48.962Z,20.89
2022-08-27T15:40:18.701Z,20.36
2022-08-27T15:42:47.236Z,20.38
2022-08-27T15:45:15.611Z,20.69
2022-08-27T15:47:43.468Z,20.56
2022-08-27T15:50:11.743Z,20.54
2022-08-27T15:52:42.275Z,20.48
2022-08-27T15:55:19.670Z,20.67
2022-08-27T15:57:47.884Z,20.70
2022-08-27T16:00:17.656Z,20.77
2022-08-27T16:02:48.485Z,20.81
2022-08-27T16:05:17.904Z,20.82
2022-08-27T16:07:45.607Z,20.86
2022-08-27T16:10:15.379Z,20.85
2022-08-27T16:12:43.017Z,20.84
2022-08-27T16:15:11.359Z,20.83
2022-08-27T16:17:39.402Z,20.91
2022-08-27T16:20:09.734Z,20.91
2022-08-27T16:22:37.478Z,20.91
2022-08-27T16:25:07.322Z,20.87
2022-08-27T16:27:37.414Z,20.70
2022-08-27T16:30:08.117Z,20.76
2022-08-27T16:32:35.829Z,20.75
2022-08-27T16:35:03.699Z,20.64
2022-08-27T16:37:31.541Z,20.60
2022-08-27T16:39:59.250Z,20.59
2022-08-27T16:42:27.134Z,20.50
2022-08-27T16:44:56.670Z,20.39
2022-08-27T16:47:24.530Z,20.39
2022-08-27T16:50:09.569Z,20.25
2022-08-27T16:52:51.089Z,20.25
2022-08-27T16:55:19.380Z,20.18
2022-08-27T16:57:47.090Z,20.19
2022-08-27T17:00:16.535Z,20.15
2022-08-27T17:02:44.294Z,20.11
2022-08-27T17:05:33.555Z,20.01
2022-08-27T17:08:00.375Z,19.94
2022-08-27T17:10:34.987Z,19.90
2022-08-27T17:13:03.002Z,19.88
2022-08-27T17:15:32.078Z,19.81
2022-08-27T17:17:59.826Z,19.85
2022-08-27T17:20:30.941Z,19.85
2022-08-27T17:22:59.185Z,19.83
2022-08-27T17:25:30.401Z,19.83
2022-08-27T17:28:00.473Z,19.80
2022-08-27T17:30:28.727Z,19.77
2022-08-27T17:32:57.874Z,19.79
2022-08-27T17:35:25.572Z,19.72
2022-08-27T17:37:53.221Z,19.77
2022-08-27T17:40:20.971Z,19.67
2022-08-27T17:42:49.316Z,19.65
2022-08-27T17:45:17.415Z,19.61
2022-08-27T17:47:45.120Z,19.55
2022-08-27T17:50:14.132Z,19.53
2022-08-27T17:52:41.880Z,19.42
2022-08-27T17:55:10.086Z,19.47
2022-08-27T17:57:40.699Z,19.39
2022-08-27T18:00:11.915Z,19.47
2022-08-27T18:02:45.055Z,19.40
2022-08-27T18:05:17.119Z,19.39
2022-08-27T18:07:45.984Z,19.36
2022-08-27T18:10:16.170Z,19.32
2022-08-27T18:12:44.751Z,19.33
2022-08-27T18:15:16.682Z,19.31
2022-08-27T18:17:44.495Z,19.29
2022-08-27T18:20:15.015Z,19.26
2022-08-27T18:22:48.588Z,19.29
2022-08-27T18:25:17.875Z,19.28
2022-08-27T18:27:47.222Z,19.29
2022-08-27T18:30:16.258Z,19.24
2022-08-27T18:32:43.987Z,19.21
2022-08-27T18:35:18.977Z,19.19
2022-08-27T18:37:47.113Z,19.19
2022-08-27T18:40:16.365Z,19.21
2022-08-27T18:42:45.053Z,19.22
2022-08-27T18:45:15.743Z,19.15
2022-08-27T18:47:44.115Z,19.14
2022-08-27T18:50:17.453Z,19.16
2022-08-27T18:52:46.787Z,19.16
2022-08-27T18:55:18.762Z,19.14
2022-08-27T18:57:46.462Z,19.12
2022-08-27T19:00:16.085Z,19.07
2022-08-27T19:02:44.086Z,19.13
2022-08-27T19:05:15.538Z,19.13
2022-08-27T19:07:43.218Z,19.00
2022-08-27T19:10:11.173Z,19.07
2022-08-27T19:12:40.987Z,19.11
2022-08-27T19:15:11.474Z,19.11
2022-08-27T19:17:42.624Z,19.08
2022-08-27T19:20:11.527Z,19.05
2022-08-27T19:22:40.543Z,19.00
2022-08-27T19:25:08.906Z,19.01
2022-08-27T19:27:37.333Z,18.98
2022-08-27T19:30:06.575Z,18.97
2022-08-27T19:32:34.379Z,18.97
2022-08-27T19:35:02.038Z,18.99
2022-08-27T19:37:32.341Z,18.93
2022-08-27T19:40:01.479Z,18.92
2022-08-27T19:42:30.429Z,18.91
2022-08-27T19:44:58.534Z,18.85
2022-08-27T19:47:26.295Z,18.87
2022-08-27T19:49:54.144Z,18.84
2022-08-27T19:52:22.323Z,18.87
2022-08-27T19:55:12.569Z,18.85
2022-08-27T19:57:39.543Z,18.86
2022-08-27T20:00:09.338Z,18.79
2022-08-27T20:02:37.899Z,18.77
2022-08-27T20:05:17.819Z,18.78
2022-08-27T20:07:45.923Z,18.73
2022-08-27T20:10:13.973Z,18.69
2022-08-27T20:12:45.394Z,18.58
2022-08-27T20:15:14.162Z,18.50
2022-08-27T20:17:43.778Z,18.52
2022-08-27T20:20:13.353Z,18.56
2022-08-27T20:22:41.352Z,18.47
2022-08-27T20:25:09.973Z,18.39
2022-08-27T20:27:37.861Z,18.36
2022-08-27T20:30:09.724Z,18.27
2022-08-27T20:32:37.556Z,18.30
2022-08-27T20:35:06.082Z,18.27
2022-08-27T20:37:40.003Z,18.34
2022-08-27T20:40:13.377Z,18.31
2022-08-27T20:42:41.125Z,18.30
2022-08-27T20:45:12.396Z,18.38
2022-08-27T20:47:40.993Z,18.31
2022-08-27T20:50:09.158Z,18.26
2022-08-27T20:52:39.833Z,18.17
2022-08-27T20:55:09.543Z,18.05
2022-08-27T20:57:37.250Z,18.02
2022-08-27T21:00:22.570Z,17.94
2022-08-27T21:02:51.619Z,17.90
2022-08-27T21:05:19.997Z,17.86
2022-08-27T21:07:48.804Z,17.82
2022-08-27T21:10:16.846Z,17.78
2022-08-27T21:12:45.272Z,17.69
2022-08-27T21:15:13.721Z,17.67
2022-08-27T21:17:41.549Z,17.63
2022-08-27T21:20:14.734Z,17.58
2022-08-27T21:22:44.128Z,17.48
2022-08-27T21:25:14.523Z,17.45
2022-08-27T21:27:43.106Z,17.43
2022-08-27T21:30:12.280Z,17.40
2022-08-27T21:32:39.982Z,17.39
2022-08-27T21:35:08.265Z,17.37
2022-08-27T21:37:38.063Z,17.28
2022-08-27T21:40:09.546Z,17.22
2022-08-27T21:42:37.438Z,17.14
2022-08-27T21:45:05.914Z,17.12
2022-08-27T21:47:33.605Z,17.04
2022-08-27T21:50:01.298Z,17.08
2022-08-27T21:52:28.997Z,17.05
2022-08-27T21:54:58.083Z,16.87
2022-08-27T21:57:25.814Z,17.06
2022-08-27T21:59:53.482Z,16.95
2022-08-27T22:02:39.316Z,16.32
2022-08-27T22:05:09.039Z,16.94
2022-08-27T22:07:36.770Z,16.96
2022-08-27T22:10:06.857Z,16.92
2022-08-27T22:12:34.997Z,16.87
2022-08-27T22:15:03.372Z,16.88
2022-08-27T22:17:31.287Z,16.87
2022-08-27T22:19:59.004Z,16.71
2022-08-27T22:22:30.542Z,16.82
2022-08-27T22:24:58.440Z,16.77
2022-08-27T22:27:27.642Z,16.70
2022-08-27T22:29:55.359Z,16.62
2022-08-27T22:32:23.205Z,16.40
2022-08-27T22:34:50.967Z,16.29
2022-08-27T22:37:18.882Z,16.68
2022-08-27T22:39:46.644Z,16.31
2022-08-27T22:42:17.636Z,15.88
2022-08-27T22:44:46.975Z,16.68
2022-08-27T22:47:15.350Z,16.35
2022-08-27T22:49:43.320Z,16.41
2022-08-27T22:52:11.165Z,16.21
2022-08-27T22:54:38.820Z,16.47
2022-08-27T22:57:06.946Z,15.98
2022-08-27T22:59:38.369Z,16.03
2022-08-27T23:02:09.396Z,16.33
2022-08-27T23:04:54.222Z,16.54
2022-08-27T23:07:22.516Z,16.29
2022-08-27T23:09:50.212Z,15.28
2022-08-27T23:12:18.331Z,16.12
2022-08-27T23:14:46.156Z,15.85
2022-08-27T23:17:16.073Z,16.11
2022-08-27T23:19:44.140Z,15.70
2022-08-27T23:22:12.351Z,16.14
2022-08-27T23:25:00.303Z,15.71
2022-08-27T23:27:29.817Z,16.08
2022-08-27T23:29:58.019Z,15.52
2022-08-27T23:32:27.915Z,15.82
2022-08-27T23:34:56.148Z,15.96
2022-08-27T23:37:25.123Z,16.00
2022-08-27T23:39:52.870Z,15.79
2022-08-27T23:42:20.752Z,15.70
2022-08-27T23:44:49.407Z,16.04
2022-08-27T23:47:17.656Z,15.95
2022-08-27T23:49:46.739Z,16.05
2022-08-27T23:52:14.578Z,16.01
2022-08-27T23:54:42.323Z,16.02
2022-08-27T23:57:10.076Z,16.05
2022-08-27T23:59:37.848Z,16.08
